Time;durP1;ratioP1;P1;durP2;ratioP2;P2;SDS_P1;SDS_P2;PMS_P1;PMS_P2;Temp;Humidity;BMP_temperature;BMP_pressure;BME280_temperature;BME280_humidity;BME280_pressure;Samples;Min_cycle;Max_cycle;Signal;HPM_P1;HPM_P2
2023/08/04 00:01:37;;;;;;;3.80;0.80;;;15.80;99.90;;;;;;5070012;28;20227;-64
2023/08/04 00:04:02;;;;;;;2.80;1.03;;;15.60;99.90;;;;;;5069847;28;20177;-65
2023/08/04 00:06:28;;;;;;;1.63;0.70;;;15.40;99.90;;;;;;5069850;28;20576;-65
2023/08/04 00:08:54;;;;;;;1.80;0.90;;;15.30;99.90;;;;;;5069490;28;20264;-65
2023/08/04 00:11:19;;;;;;;4.90;0.73;;;15.20;99.90;;;;;;5069638;28;20204;-65
2023/08/04 00:13:45;;;;;;;1.63;0.67;;;15.10;99.90;;;;;;5069607;28;20189;-64
2023/08/04 00:16:10;;;;;;;1.37;0.70;;;15.00;99.90;;;;;;5069542;28;20188;-66
2023/08/04 00:18:36;;;;;;;2.83;1.00;;;15.00;99.90;;;;;;5069687;28;20184;-65
2023/08/04 00:21:03;;;;;;;5.33;1.10;;;14.90;99.90;;;;;;5069359;28;20251;-64
2023/08/04 00:23:29;;;;;;;2.33;0.70;;;14.90;99.90;;;;;;5069517;28;20407;-65
2023/08/04 00:25:54;;;;;;;4.20;0.90;;;14.90;99.90;;;;;;5069704;28;20898;-64
2023/08/04 00:28:22;;;;;;;2.60;0.70;;;14.90;99.90;;;;;;5069934;28;20421;-64
2023/08/04 00:30:48;;;;;;;1.80;1.00;;;15.00;99.90;;;;;;5069534;28;20617;-65
2023/08/04 00:33:13;;;;;;;1.50;0.83;;;15.00;99.90;;;;;;5069588;28;20409;-63
2023/08/04 00:35:39;;;;;;;2.50;0.60;;;15.10;99.90;;;;;;5069564;28;20426;-65
2023/08/04 00:38:04;;;;;;;4.17;0.80;;;15.20;99.90;;;;;;5069188;28;20184;-65
2023/08/04 00:40:30;;;;;;;2.00;0.77;;;15.20;99.90;;;;;;5051226;28;20332;-65
2023/08/04 00:42:55;;;;;;;3.07;0.80;;;15.30;99.90;;;;;;5069116;28;20240;-65
2023/08/04 00:45:24;;;;;;;3.17;0.90;;;15.20;99.90;;;;;;5069078;28;20199;-65
2023/08/04 00:47:54;;;;;;;2.10;0.60;;;15.30;99.90;;;;;;5068965;28;20185;-65
2023/08/04 00:50:20;;;;;;;1.67;0.73;;;15.30;99.90;;;;;;5068739;28;20796;-65
2023/08/04 00:52:47;;;;;;;3.20;0.93;;;15.40;99.90;;;;;;5068952;28;20416;-65
2023/08/04 00:55:13;;;;;;;5.10;1.03;;;15.30;99.90;;;;;;5068704;28;20533;-65
2023/08/04 00:57:39;;;;;;;0.87;0.50;;;15.30;99.90;;;;;;5068815;28;20416;-65
2023/08/04 01:00:06;;;;;;;3.47;1.27;;;15.20;99.90;;;;;;5068756;28;20896;-65
2023/08/04 01:02:32;;;;;;;1.10;0.60;;;15.10;99.90;;;;;;5068756;28;20787;-65
2023/08/04 01:04:59;;;;;;;3.33;0.50;;;15.00;99.90;;;;;;5068569;28;20505;-65
2023/08/04 01:07:27;;;;;;;2.33;0.90;;;14.80;99.90;;;;;;5068678;28;20414;-65
2023/08/04 01:10:18;;;;;;;1.67;0.70;;;14.70;99.90;;;;;;5068579;28;20454;-65
2023/08/04 01:12:50;;;;;;;3.60;1.00;;;14.60;99.90;;;;;;5068516;28;20463;-65
2023/08/04 01:15:16;;;;;;;4.53;0.80;;;14.50;99.90;;;;;;5071325;28;20511;-64
2023/08/04 01:17:42;;;;;;;1.43;0.70;;;14.30;99.90;;;;;;5072593;28;20512;-64
2023/08/04 01:20:08;;;;;;;1.13;0.70;;;14.30;99.90;;;;;;5072597;28;20502;-64
2023/08/04 01:22:37;;;;;;;1.63;0.60;;;14.30;99.90;;;;;;5072440;28;20181;-64
2023/08/04 01:25:03;;;;;;;2.03;0.60;;;14.30;99.90;;;;;;5072309;28;20458;-64
2023/08/04 01:27:52;;;;;;;1.87;0.70;;;14.30;99.90;;;;;;5072232;28;20421;-64
2023/08/04 01:30:23;;;;;;;4.80;0.77;;;14.40;99.90;;;;;;5072464;28;20537;-64
2023/08/04 01:32:49;;;;;;;2.00;0.60;;;14.40;99.90;;;;;;5072799;28;20464;-65
2023/08/04 01:35:15;;;;;;;1.23;0.73;;;14.40;99.90;;;;;;5054612;28;20438;-64
2023/08/04 01:37:43;;;;;;;1.20;0.70;;;14.30;99.90;;;;;;5072570;28;20674;-64
2023/08/04 01:40:10;;;;;;;2.77;0.90;;;14.40;99.90;;;;;;5072407;28;20951;-64
2023/08/04 01:42:35;;;;;;;1.00;0.60;;;14.30;99.90;;;;;;5072625;28;20420;-64
2023/08/04 01:45:01;;;;;;;2.53;0.80;;;14.30;99.90;;;;;;5072707;28;20946;-64
2023/08/04 01:47:26;;;;;;;3.43;0.60;;;14.30;99.90;;;;;;5072734;28;20270;-64
2023/08/04 01:49:52;;;;;;;5.13;0.77;;;14.20;99.90;;;;;;5072695;28;20252;-64
2023/08/04 01:52:18;;;;;;;2.10;0.80;;;14.20;99.90;;;;;;5072629;28;20693;-64
2023/08/04 01:54:43;;;;;;;0.87;0.60;;;14.00;99.90;;;;;;5072553;28;20183;-64
2023/08/04 01:57:09;;;;;;;1.57;0.60;;;14.00;99.90;;;;;;5072753;28;20187;-65
2023/08/04 01:59:34;;;;;;;1.63;0.77;;;13.90;99.90;;;;;;5072636;28;20183;-64
2023/08/04 02:02:00;;;;;;;1.00;0.60;;;13.80;99.90;;;;;;5072350;28;20217;-64
2023/08/04 02:04:26;;;;;;;2.07;0.80;;;13.80;99.90;;;;;;5071929;28;20243;-64
2023/08/04 02:06:51;;;;;;;1.77;0.90;;;13.80;99.90;;;;;;5071826;28;20183;-64
2023/08/04 02:09:17;;;;;;;2.93;0.70;;;13.80;99.90;;;;;;5071855;28;20646;-64
2023/08/04 02:11:42;;;;;;;1.90;0.80;;;13.70;99.90;;;;;;5071628;28;20288;-64
2023/08/04 02:14:09;;;;;;;2.80;0.80;;;13.80;99.90;;;;;;5071474;28;20182;-64
2023/08/04 02:16:34;;;;;;;3.10;0.60;;;13.90;99.90;;;;;;5071290;28;20628;-64
2023/08/04 02:19:10;;;;;;;2.17;0.70;;;13.80;99.90;;;;;;5071382;28;20543;-64
2023/08/04 02:21:36;;;;;;;1.53;0.90;;;13.80;99.90;;;;;;5071215;28;20683;-64
2023/08/04 02:24:02;;;;;;;1.00;0.67;;;13.70;99.90;;;;;;5071041;28;21008;-64
2023/08/04 02:26:28;;;;;;;1.10;0.70;;;13.60;99.90;;;;;;5071020;28;20460;-64
2023/08/04 02:28:55;;;;;;;2.30;0.80;;;13.40;99.90;;;;;;5071066;28;20790;-64
2023/08/04 02:31:23;;;;;;;4.73;0.70;;;13.40;99.90;;;;;;5070832;28;20876;-65
2023/08/04 02:33:49;;;;;;;4.43;0.83;;;13.50;99.90;;;;;;5071055;28;20533;-64
2023/08/04 02:36:14;;;;;;;2.83;0.50;;;13.60;99.90;;;;;;5070931;28;20427;-64
2023/08/04 02:38:40;;;;;;;2.53;1.30;;;13.50;99.90;;;;;;5070961;28;20418;-64
2023/08/04 02:41:08;;;;;;;2.00;0.60;;;13.60;99.90;;;;;;5070855;28;20211;-64
2023/08/04 02:43:34;;;;;;;1.27;0.60;;;13.60;99.90;;;;;;5070847;28;20413;-64
2023/08/04 02:46:00;;;;;;;1.43;0.60;;;13.60;99.90;;;;;;5070703;28;21159;-64
2023/08/04 02:48:25;;;;;;;5.70;1.63;;;13.60;99.90;;;;;;5070839;28;20266;-64
2023/08/04 02:51:05;;;;;;;2.50;0.60;;;13.70;99.90;;;;;;5070665;28;20200;-65
2023/08/04 02:53:31;;;;;;;3.37;0.70;;;13.70;99.90;;;;;;5070663;28;20206;-65
2023/08/04 02:55:58;;;;;;;2.40;0.67;;;13.70;99.90;;;;;;5070663;28;21119;-64
2023/08/04 02:58:25;;;;;;;2.00;0.80;;;13.80;99.90;;;;;;5070507;28;20415;-64
2023/08/04 03:00:51;;;;;;;3.37;0.80;;;13.90;99.90;;;;;;5070393;28;20448;-64
2023/08/04 03:03:19;;;;;;;2.60;0.77;;;13.80;99.90;;;;;;5070498;28;20414;-64
2023/08/04 03:05:46;;;;;;;6.00;0.70;;;13.90;99.90;;;;;;5070222;28;20512;-64
2023/08/04 03:08:11;;;;;;;2.30;0.90;;;14.00;99.90;;;;;;5070542;28;20449;-65
2023/08/04 03:10:41;;;;;;;1.27;0.60;;;14.00;99.90;;;;;;5070415;28;20465;-64
2023/08/04 03:13:08;;;;;;;2.50;0.73;;;14.10;99.90;;;;;;5070154;28;20237;-64
2023/08/04 03:15:34;;;;;;;1.10;0.60;;;14.20;99.90;;;;;;5070270;28;20413;-64
2023/08/04 03:17:59;;;;;;;1.83;0.60;;;14.30;99.90;;;;;;5070297;28;20429;-64
2023/08/04 03:20:25;;;;;;;1.40;0.73;;;14.30;99.90;;;;;;5070077;28;20461;-64
2023/08/04 03:22:50;;;;;;;1.00;0.60;;;14.40;99.90;;;;;;5070062;28;20187;-65
2023/08/04 03:25:16;;;;;;;4.50;0.70;;;14.40;99.90;;;;;;5070026;28;20328;-65
2023/08/04 03:27:41;;;;;;;0.93;0.57;;;14.40;99.90;;;;;;5069948;28;20188;-64
2023/08/04 03:30:08;;;;;;;1.33;0.70;;;14.40;99.90;;;;;;5069745;28;20203;-64
2023/08/04 03:32:33;;;;;;;0.93;0.50;;;14.50;99.90;;;;;;5069945;28;20303;-64
2023/08/04 03:34:59;;;;;;;2.10;0.60;;;14.50;99.90;;;;;;5069847;28;20473;-64
2023/08/04 03:37:24;;;;;;;1.00;0.70;;;14.40;99.90;;;;;;5051361;28;20180;-64
2023/08/04 03:39:50;;;;;;;1.47;0.50;;;14.40;99.90;;;;;;5069791;28;20196;-64
2023/08/04 03:42:15;;;;;;;1.10;0.60;;;14.40;99.90;;;;;;5069618;28;20705;-65
2023/08/04 03:44:41;;;;;;;3.77;0.80;;;14.40;99.90;;;;;;5069595;28;20200;-64
2023/08/04 03:47:06;;;;;;;2.60;1.03;;;14.40;99.90;;;;;;5069648;28;20711;-64
2023/08/04 03:49:32;;;;;;;0.80;0.50;;;14.50;99.90;;;;;;5069559;28;20187;-64
2023/08/04 03:51:58;;;;;;;2.70;0.93;;;14.50;99.90;;;;;;5069410;28;20233;-64
2023/08/04 03:54:23;;;;;;;2.03;0.50;;;14.50;99.90;;;;;;5069504;28;20215;-64
2023/08/04 03:56:49;;;;;;;1.30;0.70;;;14.50;99.90;;;;;;5069392;28;20249;-64
2023/08/04 03:59:14;;;;;;;0.93;0.60;;;14.50;99.90;;;;;;5069332;28;20185;-64
2023/08/04 04:01:40;;;;;;;2.50;1.00;;;14.50;99.90;;;;;;5069209;28;20215;-64
2023/08/04 04:04:06;;;;;;;6.93;1.53;;;14.50;99.90;;;;;;5069247;28;20201;-65
2023/08/04 04:06:31;;;;;;;3.50;1.30;;;14.40;99.90;;;;;;5068218;28;20297;-65
2023/08/04 04:08:57;;;;;;;1.97;0.53;;;14.20;99.90;;;;;;5067889;28;20192;-64
2023/08/04 04:11:22;;;;;;;4.17;0.70;;;14.10;99.90;;;;;;5067982;28;20288;-64
2023/08/04 04:13:48;;;;;;;1.33;0.60;;;14.00;99.90;;;;;;5068038;28;20183;-65
2023/08/04 04:16:13;;;;;;;5.13;0.80;;;14.00;99.90;;;;;;5068077;28;20291;-64
2023/08/04 04:18:39;;;;;;;1.57;0.63;;;14.00;99.90;;;;;;5068093;28;20191;-64
2023/08/04 04:21:05;;;;;;;2.87;0.80;;;14.10;99.90;;;;;;5068144;28;20609;-64
2023/08/04 04:23:30;;;;;;;6.77;0.70;;;14.10;99.90;;;;;;5068550;28;20191;-64
2023/08/04 04:25:56;;;;;;;2.73;0.83;;;14.10;99.90;;;;;;5068264;28;20361;-64
2023/08/04 04:28:21;;;;;;;1.67;0.70;;;14.20;99.90;;;;;;5068278;28;20221;-64
2023/08/04 04:30:47;;;;;;;6.30;0.77;;;14.20;99.90;;;;;;5067977;28;20228;-64
2023/08/04 04:33:13;;;;;;;1.53;0.70;;;14.30;99.90;;;;;;5067982;28;20188;-64
2023/08/04 04:35:38;;;;;;;2.27;0.60;;;14.40;99.90;;;;;;5049522;28;20188;-64
2023/08/04 04:38:04;;;;;;;2.53;0.80;;;14.50;99.90;;;;;;5067503;28;20636;-64
2023/08/04 04:40:29;;;;;;;1.77;0.80;;;14.70;99.90;;;;;;5067608;28;20200;-64
2023/08/04 04:42:55;;;;;;;1.57;0.70;;;14.80;99.90;;;;;;5067552;28;20191;-64
2023/08/04 04:45:20;;;;;;;1.60;0.90;;;14.80;99.90;;;;;;5067992;28;20210;-65
2023/08/04 04:47:46;;;;;;;5.03;1.00;;;14.80;99.90;;;;;;5067449;28;20232;-64
2023/08/04 04:50:11;;;;;;;1.60;0.70;;;14.80;99.90;;;;;;5066575;28;20184;-64
2023/08/04 04:52:37;;;;;;;1.70;0.90;;;14.70;99.90;;;;;;5067358;28;20183;-64
2023/08/04 04:55:04;;;;;;;3.53;0.70;;;14.80;99.90;;;;;;5067137;28;20179;-65
2023/08/04 04:57:30;;;;;;;5.47;1.67;;;14.90;99.90;;;;;;5067154;28;21048;-64
2023/08/04 04:59:56;;;;;;;1.83;0.70;;;15.00;99.90;;;;;;5067397;28;20415;-64
2023/08/04 05:02:21;;;;;;;0.97;0.60;;;15.00;99.90;;;;;;5067307;28;20204;-64
2023/08/04 05:04:47;;;;;;;2.27;0.70;;;15.00;99.90;;;;;;5067400;28;20789;-65
2023/08/04 05:07:13;;;;;;;1.73;0.70;;;15.20;99.90;;;;;;5067368;28;20187;-64
2023/08/04 05:09:39;;;;;;;1.67;0.63;;;15.30;99.90;;;;;;5067170;28;20414;-64
2023/08/04 05:12:06;;;;;;;1.83;0.70;;;15.40;99.90;;;;;;5067528;28;20196;-64
2023/08/04 05:14:31;;;;;;;2.30;0.60;;;15.50;99.90;;;;;;5067574;28;21226;-64
2023/08/04 05:16:57;;;;;;;2.40;0.80;;;15.60;99.90;;;;;;5067616;28;20497;-64
2023/08/04 05:19:23;;;;;;;4.00;0.97;;;15.70;99.90;;;;;;5067646;28;20192;-64
2023/08/04 05:21:48;;;;;;;1.83;0.53;;;15.80;99.90;;;;;;5067469;28;20204;-65
2023/08/04 05:24:14;;;;;;;2.43;0.90;;;15.90;99.90;;;;;;5067623;28;20656;-65
2023/08/04 05:26:39;;;;;;;2.33;0.83;;;16.00;99.90;;;;;;5067470;28;20307;-64
2023/08/04 05:29:05;;;;;;;4.73;0.90;;;16.00;99.90;;;;;;5067574;28;20174;-65
2023/08/04 05:31:31;;;;;;;1.30;0.60;;;16.10;99.90;;;;;;5067279;28;20225;-66
2023/08/04 05:33:57;;;;;;;2.30;0.90;;;16.20;99.90;;;;;;5049057;28;20280;-65
2023/08/04 05:36:23;;;;;;;2.50;0.90;;;16.30;99.90;;;;;;5067458;28;20560;-64
2023/08/04 05:38:49;;;;;;;3.33;0.77;;;16.30;99.90;;;;;;5067590;28;20184;-65
2023/08/04 05:41:14;;;;;;;1.43;0.90;;;16.30;99.90;;;;;;5067458;28;20449;-64
2023/08/04 05:43:40;;;;;;;4.87;0.87;;;16.30;99.90;;;;;;5067682;28;20189;-64
2023/08/04 05:46:05;;;;;;;1.20;0.80;;;16.30;99.90;;;;;;5067322;28;20214;-64
2023/08/04 05:48:32;;;;;;;3.80;1.37;;;16.20;99.90;;;;;;5066952;28;20185;-65
2023/08/04 05:50:58;;;;;;;5.13;0.93;;;16.20;99.90;;;;;;5066768;28;20315;-65
2023/08/04 05:53:24;;;;;;;2.60;0.90;;;16.20;99.90;;;;;;5066961;28;20419;-65
2023/08/04 05:55:50;;;;;;;4.50;1.40;;;16.10;99.90;;;;;;5066760;28;20423;-65
2023/08/04 05:58:15;;;;;;;2.70;1.10;;;16.10;99.90;;;;;;5048634;28;20670;-65
2023/08/04 06:00:41;;;;;;;1.70;0.90;;;16.00;99.90;;;;;;5067902;28;20206;-64
2023/08/04 06:03:07;;;;;;;1.70;1.10;;;16.00;99.90;;;;;;5070240;28;20192;-64
2023/08/04 06:05:33;;;;;;;3.43;1.53;;;15.90;99.90;;;;;;5070047;28;20197;-65
2023/08/04 06:07:58;;;;;;;2.40;1.10;;;16.00;99.90;;;;;;5070131;28;20434;-64
2023/08/04 06:10:25;;;;;;;2.27;0.93;;;16.10;99.90;;;;;;5070031;28;20430;-64
2023/08/04 06:12:51;;;;;;;3.10;0.83;;;16.10;99.90;;;;;;5070086;28;20278;-64
2023/08/04 06:15:17;;;;;;;2.50;1.10;;;16.10;99.90;;;;;;5070000;28;20429;-64
2023/08/04 06:17:43;;;;;;;2.10;0.93;;;16.00;99.90;;;;;;5069924;28;20193;-65
2023/08/04 06:20:09;;;;;;;1.43;0.97;;;16.10;99.90;;;;;;5069865;28;20192;-64
2023/08/04 06:22:36;;;;;;;2.70;0.90;;;16.10;99.90;;;;;;5069917;28;20457;-65
2023/08/04 06:25:03;;;;;;;1.23;0.77;;;16.20;99.90;;;;;;5069951;28;20455;-63
2023/08/04 06:27:28;;;;;;;4.10;1.17;;;16.20;99.90;;;;;;5070024;28;20421;-65
2023/08/04 06:29:54;;;;;;;2.70;1.20;;;16.30;99.90;;;;;;5069672;28;20993;-65
2023/08/04 06:32:20;;;;;;;3.30;1.50;;;16.40;99.90;;;;;;5069532;28;20273;-65
2023/08/04 06:34:45;;;;;;;4.77;1.30;;;16.40;99.90;;;;;;5069463;28;20193;-65
2023/08/04 06:37:11;;;;;;;5.27;1.10;;;16.40;99.90;;;;;;5069624;28;20189;-65
2023/08/04 06:39:36;;;;;;;0.90;0.70;;;16.40;99.90;;;;;;5069655;28;20783;-64
2023/08/04 06:42:03;;;;;;;2.60;0.83;;;16.60;99.90;;;;;;5069730;28;20775;-64
2023/08/04 06:44:29;;;;;;;3.10;1.10;;;16.70;99.90;;;;;;5069545;28;20188;-64
2023/08/04 06:46:54;;;;;;;1.67;1.00;;;16.70;99.90;;;;;;5069477;28;20427;-64
2023/08/04 06:49:20;;;;;;;1.83;0.90;;;16.70;99.90;;;;;;5069461;28;20840;-65
2023/08/04 06:51:47;;;;;;;2.63;0.97;;;16.70;99.90;;;;;;5069238;28;20205;-64
2023/08/04 06:54:12;;;;;;;4.63;1.00;;;16.80;99.90;;;;;;5069353;28;20199;-65
2023/08/04 06:56:38;;;;;;;3.60;1.03;;;16.80;99.90;;;;;;5069301;28;20462;-64
2023/08/04 06:59:03;;;;;;;4.90;1.10;;;16.90;99.90;;;;;;5069195;28;20612;-65
2023/08/04 07:01:29;;;;;;;3.63;0.90;;;16.80;99.90;;;;;;5069039;28;20257;-66
2023/08/04 07:03:54;;;;;;;2.30;1.10;;;16.80;99.90;;;;;;5069310;28;20192;-65
2023/08/04 07:06:20;;;;;;;2.70;1.10;;;16.80;99.90;;;;;;5068850;28;20762;-66
2023/08/04 07:08:46;;;;;;;3.80;1.00;;;16.80;99.90;;;;;;5069323;28;20184;-65
2023/08/04 07:11:16;;;;;;;2.60;1.27;;;16.80;99.90;;;;;;5068760;28;20202;-65
2023/08/04 07:13:42;;;;;;;1.70;1.00;;;16.90;99.90;;;;;;5068422;28;20190;-64
2023/08/04 07:16:08;;;;;;;4.03;1.60;;;17.00;99.90;;;;;;5068837;28;20424;-64
2023/08/04 07:18:34;;;;;;;2.70;1.13;;;17.10;99.90;;;;;;5069114;28;20427;-64
2023/08/04 07:21:10;;;;;;;3.33;1.00;;;17.20;99.90;;;;;;5069131;28;20199;-64
2023/08/04 07:23:36;;;;;;;4.30;1.50;;;17.20;99.90;;;;;;5069227;28;20470;-64
2023/08/04 07:26:03;;;;;;;1.20;0.90;;;17.30;99.90;;;;;;5069111;28;20499;-64
2023/08/04 07:28:28;;;;;;;1.73;0.80;;;17.40;99.90;;;;;;5069159;28;20459;-65
2023/08/04 07:30:54;;;;;;;3.67;1.43;;;17.50;99.90;;;;;;5069147;28;21368;-63
2023/08/04 07:33:21;;;;;;;1.97;0.90;;;17.60;99.90;;;;;;5069654;28;20189;-65
2023/08/04 07:35:55;;;;;;;2.63;1.00;;;17.70;99.90;;;;;;5069411;28;20881;-64
2023/08/04 07:38:24;;;;;;;2.33;0.80;;;17.90;99.90;;;;;;5069751;28;20986;-63
2023/08/04 07:40:50;;;;;;;2.40;1.23;;;18.00;99.90;;;;;;5069110;28;20458;-63
2023/08/04 07:43:16;;;;;;;1.70;0.80;;;18.10;99.90;;;;;;5069066;28;20478;-67
2023/08/04 07:45:42;;;;;;;5.93;1.00;;;18.30;99.90;;;;;;5068787;28;20459;-65
2023/08/04 07:48:08;;;;;;;2.50;1.20;;;18.40;99.90;;;;;;5068870;28;20414;-65
2023/08/04 07:50:42;;;;;;;2.07;0.97;;;18.50;99.90;;;;;;5068832;28;20968;-64
2023/08/04 07:53:08;;;;;;;5.07;1.20;;;18.60;99.90;;;;;;5068764;28;20212;-64
2023/08/04 07:55:37;;;;;;;2.67;1.30;;;18.60;99.90;;;;;;5068434;28;20799;-64
2023/08/04 07:58:11;;;;;;;3.13;0.90;;;18.80;99.90;;;;;;5068221;28;20212;-65
2023/08/04 08:00:37;;;;;;;2.23;0.83;;;18.90;99.90;;;;;;5068429;28;20436;-65
2023/08/04 08:03:03;;;;;;;3.63;1.10;;;19.00;99.90;;;;;;5067964;28;20490;-65
2023/08/04 08:05:28;;;;;;;4.10;1.20;;;19.10;99.90;;;;;;5068476;28;20218;-65
2023/08/04 08:07:54;;;;;;;2.43;1.10;;;19.10;99.90;;;;;;5067815;28;20206;-65
2023/08/04 08:10:20;;;;;;;2.70;0.87;;;19.30;99.90;;;;;;5067822;28;20849;-65
2023/08/04 08:12:45;;;;;;;1.40;0.60;;;19.40;99.90;;;;;;5067733;28;20272;-65
2023/08/04 08:15:12;;;;;;;2.50;0.97;;;19.50;99.90;;;;;;5068105;28;20290;-65
2023/08/04 08:17:38;;;;;;;1.57;0.80;;;19.50;99.90;;;;;;5067744;28;20188;-64
2023/08/04 08:20:05;;;;;;;3.83;0.90;;;19.60;99.90;;;;;;5067380;28;20942;-64
2023/08/04 08:22:30;;;;;;;2.10;0.80;;;19.60;99.90;;;;;;5067668;28;20443;-65
2023/08/04 08:24:56;;;;;;;3.20;0.90;;;19.60;99.90;;;;;;5067316;28;20476;-65
2023/08/04 08:27:23;;;;;;;1.23;0.80;;;19.70;99.90;;;;;;5067644;28;20182;-65
2023/08/04 08:29:53;;;;;;;2.07;0.80;;;19.70;99.90;;;;;;5067421;28;20529;-65
2023/08/04 08:32:19;;;;;;;4.73;1.10;;;19.70;99.90;;;;;;5067645;28;20876;-65
2023/08/04 08:34:45;;;;;;;3.63;1.00;;;19.80;99.90;;;;;;5067509;28;20546;-67
2023/08/04 08:37:10;;;;;;;1.23;0.90;;;19.80;99.90;;;;;;5067497;28;20275;-65
2023/08/04 08:39:36;;;;;;;2.87;0.90;;;19.90;99.90;;;;;;5067995;28;20178;-65
2023/08/04 08:42:02;;;;;;;1.63;0.80;;;20.10;99.90;;;;;;5068094;28;20214;-65
2023/08/04 08:44:28;;;;;;;2.13;1.10;;;20.20;99.90;;;;;;5068030;28;20221;-65
2023/08/04 08:46:54;;;;;;;5.43;1.03;;;20.30;99.90;;;;;;5067708;28;20225;-65
2023/08/04 08:49:23;;;;;;;2.00;0.73;;;20.50;99.90;;;;;;5067842;28;20417;-65
2023/08/04 08:51:52;;;;;;;1.77;1.00;;;20.60;99.90;;;;;;5067669;28;20201;-65
2023/08/04 08:54:19;;;;;;;4.20;0.97;;;20.90;99.90;;;;;;5067759;28;20576;-65
2023/08/04 08:56:45;;;;;;;1.40;0.80;;;21.20;99.90;;;;;;5067256;28;20447;-66
2023/08/04 08:59:10;;;;;;;6.43;1.23;;;21.50;99.90;;;;;;5067302;28;20535;-65
2023/08/04 09:01:37;;;;;;;1.20;0.70;;;21.60;99.90;;;;;;5067190;28;21408;-65
2023/08/04 09:04:04;;;;;;;2.60;0.60;;;21.50;99.90;;;;;;5067044;28;20183;-65
2023/08/04 09:06:29;;;;;;;5.27;0.83;;;21.40;99.90;;;;;;5067134;28;20828;-65
2023/08/04 09:08:55;;;;;;;5.17;0.90;;;21.30;99.90;;;;;;5067177;28;20421;-65
2023/08/04 09:11:21;;;;;;;6.83;1.13;;;21.30;99.90;;;;;;5067155;28;20207;-65
2023/08/04 09:13:49;;;;;;;6.07;0.80;;;21.30;99.90;;;;;;5066860;28;20846;-65
2023/08/04 09:16:15;;;;;;;3.67;1.00;;;21.10;99.90;;;;;;5067869;28;20594;-65
2023/08/04 09:18:42;;;;;;;3.50;1.07;;;21.00;99.90;;;;;;5066896;28;20819;-64
2023/08/04 09:21:08;;;;;;;1.50;0.77;;;21.00;99.90;;;;;;5066847;28;20445;-64
2023/08/04 09:23:47;;;;;;;1.47;0.60;;;20.90;99.90;;;;;;5048662;28;20799;-65
2023/08/04 09:26:13;;;;;;;1.53;0.83;;;20.80;99.90;;;;;;5066905;28;20240;-64
2023/08/04 09:28:38;;;;;;;2.40;1.00;;;20.80;99.90;;;;;;5066784;28;20429;-64
2023/08/04 09:31:06;;;;;;;5.47;0.80;;;20.80;99.90;;;;;;5066660;28;20222;-64
2023/08/04 09:33:33;;;;;;;2.70;0.90;;;20.90;99.90;;;;;;5066857;28;20207;-65
2023/08/04 09:36:03;;;;;;;3.10;0.97;;;21.10;99.90;;;;;;5068836;28;20418;-65
2023/08/04 09:38:29;;;;;;;4.13;0.93;;;21.40;99.90;;;;;;5070900;28;20947;-64
2023/08/04 09:41:09;;;;;;;2.87;1.13;;;21.50;99.90;;;;;;5070661;28;20480;-64
2023/08/04 09:43:35;;;;;;;3.70;0.70;;;21.70;99.90;;;;;;5070572;28;20183;-64
2023/08/04 09:46:06;;;;;;;1.10;0.70;;;21.70;99.90;;;;;;5070444;28;20464;-65
2023/08/04 09:48:32;;;;;;;1.70;0.70;;;21.70;99.90;;;;;;5070601;28;20428;-65
2023/08/04 09:51:09;;;;;;;2.07;0.70;;;21.70;99.90;;;;;;5070302;28;20433;-64
2023/08/04 09:53:36;;;;;;;2.10;0.60;;;21.50;99.90;;;;;;5070557;28;20583;-65
2023/08/04 09:56:02;;;;;;;1.93;0.77;;;21.50;99.90;;;;;;5070323;28;20421;-64
2023/08/04 09:58:28;;;;;;;4.07;0.70;;;21.50;99.90;;;;;;5070381;28;20423;-64
2023/08/04 10:00:54;;;;;;;1.60;0.60;;;21.60;99.90;;;;;;5070553;28;20448;-65
2023/08/04 10:03:21;;;;;;;7.80;1.23;;;21.70;99.90;;;;;;5052485;28;20193;-65
2023/08/04 10:05:47;;;;;;;4.60;0.70;;;21.80;99.90;;;;;;5070216;28;20477;-66
2023/08/04 10:08:13;;;;;;;2.43;0.83;;;21.80;99.90;;;;;;5070556;28;20526;-65
2023/08/04 10:10:39;;;;;;;1.73;0.70;;;22.00;99.90;;;;;;5070492;28;20731;-65
2023/08/04 10:13:05;;;;;;;1.43;0.60;;;22.10;99.90;;;;;;5070643;28;20424;-65
2023/08/04 10:15:31;;;;;;;2.00;0.77;;;22.20;99.90;;;;;;5070646;28;20191;-66
2023/08/04 10:17:57;;;;;;;2.33;0.70;;;22.50;99.90;;;;;;5070564;28;20180;-65
2023/08/04 10:20:24;;;;;;;2.77;1.00;;;22.70;99.90;;;;;;5070272;28;20177;-65
2023/08/04 10:22:50;;;;;;;2.40;1.03;;;22.90;99.90;;;;;;5070199;28;20514;-66
2023/08/04 10:25:16;;;;;;;2.57;1.07;;;22.80;99.90;;;;;;5070320;28;20960;-65
2023/08/04 10:27:49;;;;;;;2.13;0.70;;;22.80;99.90;;;;;;5070568;28;20191;-65
2023/08/04 10:30:15;;;;;;;2.90;0.70;;;22.90;99.90;;;;;;5070296;28;20443;-65
2023/08/04 10:32:41;;;;;;;2.77;1.07;;;23.00;99.90;;;;;;5070318;28;20421;-65
2023/08/04 10:35:16;;;;;;;3.00;1.03;;;23.00;99.90;;;;;;5070438;28;20687;-65
2023/08/04 10:37:50;;;;;;;0.90;0.70;;;23.10;99.90;;;;;;5070784;28;20409;-66
2023/08/04 10:40:31;;;;;;;1.93;0.73;;;22.90;99.90;;;;;;5070396;28;20428;-65
2023/08/04 10:42:58;;;;;;;1.67;0.60;;;22.70;99.90;;;;;;5070502;28;20445;-65
2023/08/04 10:45:23;;;;;;;3.63;0.90;;;22.50;99.90;;;;;;5070412;28;20524;-65
2023/08/04 10:47:53;;;;;;;1.87;0.80;;;22.40;99.90;;;;;;5069030;28;20451;-65
2023/08/04 10:50:19;;;;;;;4.10;1.00;;;22.30;99.90;;;;;;5070186;28;20182;-65
2023/08/04 10:52:45;;;;;;;3.13;0.80;;;22.10;99.90;;;;;;5070237;28;20422;-64
2023/08/04 10:55:13;;;;;;;2.80;0.80;;;21.90;99.90;;;;;;5070174;28;20514;-65
2023/08/04 10:57:41;;;;;;;2.20;0.70;;;21.90;99.90;;;;;;5070261;28;20249;-65
2023/08/04 11:00:09;;;;;;;1.70;0.80;;;22.00;99.90;;;;;;5070102;28;20457;-66
2023/08/04 11:02:36;;;;;;;1.23;0.50;;;22.10;99.90;;;;;;5035583;28;20961;-66
2023/08/04 11:05:07;;;;;;;1.10;0.70;;;22.30;99.90;;;;;;5069836;28;20476;-65
2023/08/04 11:07:35;;;;;;;1.10;0.73;;;22.40;99.90;;;;;;5070046;28;20490;-65
2023/08/04 11:10:04;;;;;;;3.70;0.80;;;22.40;99.90;;;;;;5069793;28;20483;-65
2023/08/04 11:12:31;;;;;;;1.23;0.60;;;22.20;99.90;;;;;;5069217;28;20873;-65
2023/08/04 11:14:58;;;;;;;2.30;0.80;;;22.00;99.90;;;;;;5069176;28;20407;-65
2023/08/04 11:17:23;;;;;;;4.73;1.10;;;21.90;99.90;;;;;;5068953;28;20422;-65
2023/08/04 11:19:50;;;;;;;2.20;0.90;;;21.90;99.90;;;;;;5068668;28;20424;-65
2023/08/04 11:22:22;;;;;;;2.53;1.00;;;21.70;99.90;;;;;;5068637;28;20580;-66
2023/08/04 11:24:50;;;;;;;3.67;0.90;;;21.60;99.90;;;;;;5068865;28;20414;-65
2023/08/04 11:27:16;;;;;;;2.53;0.90;;;21.50;99.90;;;;;;5068839;28;20453;-65
2023/08/04 11:29:42;;;;;;;2.23;0.73;;;21.40;99.90;;;;;;5068604;28;20474;-65
2023/08/04 11:32:15;;;;;;;1.63;0.80;;;21.40;99.90;;;;;;5068866;28;20441;-64
2023/08/04 11:34:41;;;;;;;1.77;0.80;;;21.20;99.90;;;;;;5069089;28;20416;-65
2023/08/04 11:37:07;;;;;;;0.90;0.70;;;21.10;99.90;;;;;;5069043;28;20797;-65
2023/08/04 11:39:34;;;;;;;2.00;0.70;;;21.20;99.90;;;;;;5069025;28;20178;-65
2023/08/04 11:42:01;;;;;;;1.07;0.57;;;21.30;99.90;;;;;;5068504;28;20881;-66
2023/08/04 11:44:26;;;;;;;2.70;0.60;;;22.10;99.90;;;;;;5068398;28;20807;-65
2023/08/04 11:46:52;;;;;;;2.20;0.50;;;23.00;99.90;;;;;;5068316;28;20468;-65
2023/08/04 11:49:18;;;;;;;2.80;0.93;;;23.20;99.10;;;;;;5068249;28;20213;-65
2023/08/04 11:51:44;;;;;;;1.60;0.50;;;23.00;99.90;;;;;;5068247;28;20440;-65
2023/08/04 11:54:22;;;;;;;2.07;0.63;;;22.80;99.90;;;;;;5068250;28;20194;-66
2023/08/04 11:56:55;;;;;;;2.37;0.87;;;22.50;99.90;;;;;;5068223;28;20918;-68
2023/08/04 11:59:21;;;;;;;0.97;0.60;;;22.30;99.90;;;;;;5049409;28;20427;-65
2023/08/04 12:01:47;;;;;;;2.00;0.83;;;22.10;99.90;;;;;;5068061;28;20452;-66
2023/08/04 12:04:23;;;;;;;2.20;0.73;;;21.90;99.90;;;;;;5067898;28;20198;-66
2023/08/04 12:07:00;;;;;;;0.90;0.70;;;21.70;99.90;;;;;;5050326;28;20212;-64
2023/08/04 12:09:27;;;;;;;2.80;0.70;;;21.50;99.90;;;;;;5067910;28;20410;-66
2023/08/04 12:11:52;;;;;;;3.90;1.07;;;21.50;99.90;;;;;;5049483;28;20976;-65
2023/08/04 12:14:20;;;;;;;1.57;0.90;;;21.40;99.90;;;;;;5067754;28;20423;-66
2023/08/04 12:16:52;;;;;;;5.00;0.87;;;21.40;99.90;;;;;;5067959;28;20286;-65
2023/08/04 12:19:20;;;;;;;1.20;0.60;;;21.40;99.90;;;;;;5067519;28;20424;-65
2023/08/04 12:21:46;;;;;;;1.90;0.80;;;21.40;99.90;;;;;;5067858;28;20448;-65
2023/08/04 12:24:12;;;;;;;1.20;0.70;;;21.40;99.90;;;;;;5067791;28;20421;-64
2023/08/04 12:26:41;;;;;;;1.53;1.00;;;21.40;99.90;;;;;;5067768;28;20506;-64
2023/08/04 12:29:08;;;;;;;5.17;0.90;;;21.40;99.90;;;;;;5067662;28;20424;-65
2023/08/04 12:31:33;;;;;;;3.33;0.97;;;21.30;99.90;;;;;;5068084;28;20449;-65
2023/08/04 12:33:59;;;;;;;2.57;0.80;;;21.20;99.90;;;;;;5068035;28;20413;-66
2023/08/04 12:36:25;;;;;;;2.90;1.40;;;21.10;99.90;;;;;;5067739;28;20243;-66
2023/08/04 12:38:51;;;;;;;2.40;0.93;;;20.90;99.90;;;;;;5067979;28;20456;-65
2023/08/04 12:41:17;;;;;;;1.30;0.67;;;20.60;99.90;;;;;;5067957;28;20203;-65
2023/08/04 12:43:42;;;;;;;4.97;0.70;;;20.40;99.90;;;;;;5067826;28;20190;-65
2023/08/04 12:46:08;;;;;;;2.10;0.77;;;20.20;99.90;;;;;;5067952;28;20283;-64